sensor_id;sensor_type;location;lat;lon;timestamp;temperature;humidity
11214;DHT22;5664;48.606;13.456;2023-10-09T00:01:06;21.60;78.60
11214;DHT22;5664;48.606;13.456;2023-10-09T00:03:46;21.60;78.60
11214;DHT22;5664;48.606;13.456;2023-10-09T00:06:17;21.60;78.70
11214;DHT22;5664;48.606;13.456;2023-10-09T00:08:49;21.60;79.00
11214;DHT22;5664;48.606;13.456;2023-10-09T00:11:19;21.50;81.80
11214;DHT22;5664;48.606;13.456;2023-10-09T00:13:46;21.50;79.00
11214;DHT22;5664;48.606;13.456;2023-10-09T00:16:16;21.60;78.90
11214;DHT22;5664;48.606;13.456;2023-10-09T00:18:42;21.50;78.70
11214;DHT22;5664;48.606;13.456;2023-10-09T00:21:17;21.50;78.80
11214;DHT22;5664;48.606;13.456;2023-10-09T00:23:45;21.50;79.10
11214;DHT22;5664;48.606;13.456;2023-10-09T00:26:17;21.50;78.90
11214;DHT22;5664;48.606;13.456;2023-10-09T00:28:42;21.50;79.00
11214;DHT22;5664;48.606;13.456;2023-10-09T00:31:13;21.50;79.00
11214;DHT22;5664;48.606;13.456;2023-10-09T00:33:42;21.50;79.40
11214;DHT22;5664;48.606;13.456;2023-10-09T00:36:10;21.50;78.60
11214;DHT22;5664;48.606;13.456;2023-10-09T00:38:36;21.50;79.00
11214;DHT22;5664;48.606;13.456;2023-10-09T00:41:05;21.50;79.10
11214;DHT22;5664;48.606;13.456;2023-10-09T00:43:33;21.50;79.20
11214;DHT22;5664;48.606;13.456;2023-10-09T00:46:01;21.40;79.40
11214;DHT22;5664;48.606;13.456;2023-10-09T00:48:48;21.40;78.50
11214;DHT22;5664;48.606;13.456;2023-10-09T00:51:18;21.40;78.50
11214;DHT22;5664;48.606;13.456;2023-10-09T00:53:57;21.40;78.70
11214;DHT22;5664;48.606;13.456;2023-10-09T00:56:44;21.40;79.20
11214;DHT22;5664;48.606;13.456;2023-10-09T00:59:17;21.40;79.40
11214;DHT22;5664;48.606;13.456;2023-10-09T01:01:45;21.40;78.90
11214;DHT22;5664;48.606;13.456;2023-10-09T01:04:24;21.40;79.10
11214;DHT22;5664;48.606;13.456;2023-10-09T01:06:51;21.30;78.90
11214;DHT22;5664;48.606;13.456;2023-10-09T01:09:35;21.30;79.90
11214;DHT22;5664;48.606;13.456;2023-10-09T01:12:03;21.30;80.10
11214;DHT22;5664;48.606;13.456;2023-10-09T01:14:29;21.40;80.20
11214;DHT22;5664;48.606;13.456;2023-10-09T01:16:56;21.30;80.30
11214;DHT22;5664;48.606;13.456;2023-10-09T01:19:22;21.30;80.30
11214;DHT22;5664;48.606;13.456;2023-10-09T01:21:54;21.30;80.10
11214;DHT22;5664;48.606;13.456;2023-10-09T01:24:19;21.30;81.90
11214;DHT22;5664;48.606;13.456;2023-10-09T01:26:45;21.30;81.50
11214;DHT22;5664;48.606;13.456;2023-10-09T01:29:18;21.30;80.90
11214;DHT22;5664;48.606;13.456;2023-10-09T01:34:29;21.50;80.20
11214;DHT22;5664;48.606;13.456;2023-10-09T01:37:16;21.20;80.60
11214;DHT22;5664;48.606;13.456;2023-10-09T01:39:49;21.20;79.30
11214;DHT22;5664;48.606;13.456;2023-10-09T01:42:16;21.20;80.40
11214;DHT22;5664;48.606;13.456;2023-10-09T01:45:02;21.20;80.50
11214;DHT22;5664;48.606;13.456;2023-10-09T01:47:37;21.20;80.60
11214;DHT22;5664;48.606;13.456;2023-10-09T01:50:03;21.40;80.00
11214;DHT22;5664;48.606;13.456;2023-10-09T01:52:30;21.20;79.50
11214;DHT22;5664;48.606;13.456;2023-10-09T01:54:56;21.10;79.90
11214;DHT22;5664;48.606;13.456;2023-10-09T01:57:38;21.10;79.90
11214;DHT22;5664;48.606;13.456;2023-10-09T02:00:05;21.10;79.90
11214;DHT22;5664;48.606;13.456;2023-10-09T02:02:30;21.10;80.10
11214;DHT22;5664;48.606;13.456;2023-10-09T02:05:03;21.20;79.90
11214;DHT22;5664;48.606;13.456;2023-10-09T02:07:40;21.10;79.70
11214;DHT22;5664;48.606;13.456;2023-10-09T02:10:07;21.10;79.60
11214;DHT22;5664;48.606;13.456;2023-10-09T02:12:46;21.10;80.00
11214;DHT22;5664;48.606;13.456;2023-10-09T02:15:12;21.00;79.90
11214;DHT22;5664;48.606;13.456;2023-10-09T02:17:41;21.00;80.00
11214;DHT22;5664;48.606;13.456;2023-10-09T02:20:17;21.00;80.10
11214;DHT22;5664;48.606;13.456;2023-10-09T02:22:54;21.00;79.90
11214;DHT22;5664;48.606;13.456;2023-10-09T02:25:19;21.00;79.90
11214;DHT22;5664;48.606;13.456;2023-10-09T02:27:47;21.00;79.50
11214;DHT22;5664;48.606;13.456;2023-10-09T02:30:19;21.00;79.80
11214;DHT22;5664;48.606;13.456;2023-10-09T02:32:52;21.20;80.40
11214;DHT22;5664;48.606;13.456;2023-10-09T02:35:19;21.00;80.00
11214;DHT22;5664;48.606;13.456;2023-10-09T02:37:46;20.90;80.10
11214;DHT22;5664;48.606;13.456;2023-10-09T02:40:13;20.90;80.30
11214;DHT22;5664;48.606;13.456;2023-10-09T02:42:47;20.90;80.20
11214;DHT22;5664;48.606;13.456;2023-10-09T02:45:15;20.90;80.10
11214;DHT22;5664;48.606;13.456;2023-10-09T02:47:41;20.90;80.60
11214;DHT22;5664;48.606;13.456;2023-10-09T02:50:08;21.00;80.70
11214;DHT22;5664;48.606;13.456;2023-10-09T02:52:47;20.90;80.60
11214;DHT22;5664;48.606;13.456;2023-10-09T02:55:18;20.90;80.70
11214;DHT22;5664;48.606;13.456;2023-10-09T02:57:54;20.90;80.70
11214;DHT22;5664;48.606;13.456;2023-10-09T03:00:33;20.80;80.60
11214;DHT22;5664;48.606;13.456;2023-10-09T03:03:01;20.80;80.60
11214;DHT22;5664;48.606;13.456;2023-10-09T03:05:31;20.80;80.90
11214;DHT22;5664;48.606;13.456;2023-10-09T03:07:57;20.80;80.60
11214;DHT22;5664;48.606;13.456;2023-10-09T03:10:23;20.80;79.50
11214;DHT22;5664;48.606;13.456;2023-10-09T03:12:48;20.80;79.90
11214;DHT22;5664;48.606;13.456;2023-10-09T03:15:21;20.50;81.30
11214;DHT22;5664;48.606;13.456;2023-10-09T03:17:47;20.80;82.80
11214;DHT22;5664;48.606;13.456;2023-10-09T03:20:15;20.80;80.20
11214;DHT22;5664;48.606;13.456;2023-10-09T03:22:43;20.70;80.10
11214;DHT22;5664;48.606;13.456;2023-10-09T03:25:10;20.80;80.30
11214;DHT22;5664;48.606;13.456;2023-10-09T03:27:43;20.70;79.60
11214;DHT22;5664;48.606;13.456;2023-10-09T03:30:11;20.70;80.00
11214;DHT22;5664;48.606;13.456;2023-10-09T03:32:43;20.70;80.30
11214;DHT22;5664;48.606;13.456;2023-10-09T03:35:09;20.70;79.60
11214;DHT22;5664;48.606;13.456;2023-10-09T03:37:39;20.70;80.30
11214;DHT22;5664;48.606;13.456;2023-10-09T03:40:05;20.70;80.40
11214;DHT22;5664;48.606;13.456;2023-10-09T03:42:33;20.70;80.30
11214;DHT22;5664;48.606;13.456;2023-10-09T03:45:01;20.70;80.40
11214;DHT22;5664;48.606;13.456;2023-10-09T03:47:31;20.60;80.50
11214;DHT22;5664;48.606;13.456;2023-10-09T03:49:57;20.70;80.50
11214;DHT22;5664;48.606;13.456;2023-10-09T03:52:22;20.60;80.40
11214;DHT22;5664;48.606;13.456;2023-10-09T03:54:50;20.60;80.50
11214;DHT22;5664;48.606;13.456;2023-10-09T03:57:16;20.60;80.50
11214;DHT22;5664;48.606;13.456;2023-10-09T03:59:47;20.60;80.60
11214;DHT22;5664;48.606;13.456;2023-10-09T04:02:13;20.60;80.20
11214;DHT22;5664;48.606;13.456;2023-10-09T04:04:40;20.60;80.50
11214;DHT22;5664;48.606;13.456;2023-10-09T04:07:11;20.60;80.70
11214;DHT22;5664;48.606;13.456;2023-10-09T04:09:36;20.60;80.10
11214;DHT22;5664;48.606;13.456;2023-10-09T04:12:05;20.60;80.20
11214;DHT22;5664;48.606;13.456;2023-10-09T04:14:37;20.50;80.20
11214;DHT22;5664;48.606;13.456;2023-10-09T04:17:12;20.50;80.60
11214;DHT22;5664;48.606;13.456;2023-10-09T04:19:47;20.50;80.60
11214;DHT22;5664;48.606;13.456;2023-10-09T04:22:35;20.50;80.50
11214;DHT22;5664;48.606;13.456;2023-10-09T04:25:07;20.50;80.60
11214;DHT22;5664;48.606;13.456;2023-10-09T04:27:42;20.50;80.60
11214;DHT22;5664;48.606;13.456;2023-10-09T04:30:10;20.50;80.50
11214;DHT22;5664;48.606;13.456;2023-10-09T04:32:43;20.50;80.40
11214;DHT22;5664;48.606;13.456;2023-10-09T04:35:11;20.50;80.00
11214;DHT22;5664;48.606;13.456;2023-10-09T04:37:49;20.50;80.60
11214;DHT22;5664;48.606;13.456;2023-10-09T04:40:32;20.50;80.60
11214;DHT22;5664;48.606;13.456;2023-10-09T04:43:13;20.40;80.60
11214;DHT22;5664;48.606;13.456;2023-10-09T04:45:47;20.50;80.80
11214;DHT22;5664;48.606;13.456;2023-10-09T04:48:32;20.40;80.70
11214;DHT22;5664;48.606;13.456;2023-10-09T04:50:58;20.40;80.90
11214;DHT22;5664;48.606;13.456;2023-10-09T04:53:42;20.40;80.80
11214;DHT22;5664;48.606;13.456;2023-10-09T04:56:13;20.40;80.70
11214;DHT22;5664;48.606;13.456;2023-10-09T04:58:41;20.40;81.00
11214;DHT22;5664;48.606;13.456;2023-10-09T05:01:06;20.40;81.00
11214;DHT22;5664;48.606;13.456;2023-10-09T05:03:39;20.40;80.40
11214;DHT22;5664;48.606;13.456;2023-10-09T05:06:04;20.40;81.00
11214;DHT22;5664;48.606;13.456;2023-10-09T05:09:02;20.40;81.00
11214;DHT22;5664;48.606;13.456;2023-10-09T05:11:34;20.30;80.90
11214;DHT22;5664;48.606;13.456;2023-10-09T05:14:00;20.30;81.10
11214;DHT22;5664;48.606;13.456;2023-10-09T05:16:38;20.30;81.20
11214;DHT22;5664;48.606;13.456;2023-10-09T05:19:20;20.30;80.40
11214;DHT22;5664;48.606;13.456;2023-10-09T05:21:54;20.30;80.60
11214;DHT22;5664;48.606;13.456;2023-10-09T05:24:23;20.30;80.80
11214;DHT22;5664;48.606;13.456;2023-10-09T05:26:51;20.30;81.00
11214;DHT22;5664;48.606;13.456;2023-10-09T05:29:18;20.30;81.00
11214;DHT22;5664;48.606;13.456;2023-10-09T05:32:07;20.30;81.00
11214;DHT22;5664;48.606;13.456;2023-10-09T05:34:38;20.30;80.80
11214;DHT22;5664;48.606;13.456;2023-10-09T05:37:22;20.30;80.90
11214;DHT22;5664;48.606;13.456;2023-10-09T05:39:52;20.30;81.10
11214;DHT22;5664;48.606;13.456;2023-10-09T05:45:17;20.20;79.60
11214;DHT22;5664;48.606;13.456;2023-10-09T05:47:43;20.10;77.00
11214;DHT22;5664;48.606;13.456;2023-10-09T05:50:21;19.90;77.20
11214;DHT22;5664;48.606;13.456;2023-10-09T05:52:49;19.80;77.90
11214;DHT22;5664;48.606;13.456;2023-10-09T05:55:15;19.80;78.40
11214;DHT22;5664;48.606;13.456;2023-10-09T05:57:55;19.50;78.50
11214;DHT22;5664;48.606;13.456;2023-10-09T06:00:39;19.40;78.80
11214;DHT22;5664;48.606;13.456;2023-10-09T06:03:23;19.30;79.40
11214;DHT22;5664;48.606;13.456;2023-10-09T06:05:49;19.20;79.90
11214;DHT22;5664;48.606;13.456;2023-10-09T06:08:21;19.20;80.30
11214;DHT22;5664;48.606;13.456;2023-10-09T06:10:52;19.20;80.90
11214;DHT22;5664;48.606;13.456;2023-10-09T06:13:36;19.10;80.70
11214;DHT22;5664;48.606;13.456;2023-10-09T06:16:12;19.00;81.00
11214;DHT22;5664;48.606;13.456;2023-10-09T06:18:56;19.00;81.80
11214;DHT22;5664;48.606;13.456;2023-10-09T06:21:37;19.20;81.60
11214;DHT22;5664;48.606;13.456;2023-10-09T06:24:22;19.30;82.30
11214;DHT22;5664;48.606;13.456;2023-10-09T06:26:48;19.40;82.40
11214;DHT22;5664;48.606;13.456;2023-10-09T06:29:26;19.90;83.20
11214;DHT22;5664;48.606;13.456;2023-10-09T06:32:02;19.60;83.40
11214;DHT22;5664;48.606;13.456;2023-10-09T06:34:46;19.70;83.90
11214;DHT22;5664;48.606;13.456;2023-10-09T06:37:19;19.80;83.80
11214;DHT22;5664;48.606;13.456;2023-10-09T06:39:48;19.90;83.50
11214;DHT22;5664;48.606;13.456;2023-10-09T06:42:23;19.40;85.90
11214;DHT22;5664;48.606;13.456;2023-10-09T06:47:50;20.20;83.50
11214;DHT22;5664;48.606;13.456;2023-10-09T06:50:21;20.30;83.30
11214;DHT22;5664;48.606;13.456;2023-10-09T06:52:47;20.40;83.10
11214;DHT22;5664;48.606;13.456;2023-10-09T06:55:38;20.50;82.90
11214;DHT22;5664;48.606;13.456;2023-10-09T06:58:19;20.50;82.30
11214;DHT22;5664;48.606;13.456;2023-10-09T07:00:49;20.60;82.40
11214;DHT22;5664;48.606;13.456;2023-10-09T07:03:24;20.60;86.10
11214;DHT22;5664;48.606;13.456;2023-10-09T07:06:10;20.60;82.80
11214;DHT22;5664;48.606;13.456;2023-10-09T07:08:58;20.70;82.70
11214;DHT22;5664;48.606;13.456;2023-10-09T07:11:32;20.80;83.10
11214;DHT22;5664;48.606;13.456;2023-10-09T07:16:57;20.80;82.60
11214;DHT22;5664;48.606;13.456;2023-10-09T07:19:23;20.90;82.80
11214;DHT22;5664;48.606;13.456;2023-10-09T07:22:23;20.90;82.90
11214;DHT22;5664;48.606;13.456;2023-10-09T07:24:57;21.00;82.60
11214;DHT22;5664;48.606;13.456;2023-10-09T07:27:27;20.90;79.50
11214;DHT22;5664;48.606;13.456;2023-10-09T07:30:31;20.80;77.10
11214;DHT22;5664;48.606;13.456;2023-10-09T07:33:03;20.60;76.70
11214;DHT22;5664;48.606;13.456;2023-10-09T07:35:35;20.40;76.70
11214;DHT22;5664;48.606;13.456;2023-10-09T07:38:11;20.30;77.10
11214;DHT22;5664;48.606;13.456;2023-10-09T07:40:37;20.10;77.30
11214;DHT22;5664;48.606;13.456;2023-10-09T07:43:26;20.10;77.40
11214;DHT22;5664;48.606;13.456;2023-10-09T07:45:56;20.10;76.90
11214;DHT22;5664;48.606;13.456;2023-10-09T07:48:25;20.10;75.80
11214;DHT22;5664;48.606;13.456;2023-10-09T07:51:04;20.10;75.10
11214;DHT22;5664;48.606;13.456;2023-10-09T07:53:30;20.10;74.90
11214;DHT22;5664;48.606;13.456;2023-10-09T07:56:08;20.10;75.00
11214;DHT22;5664;48.606;13.456;2023-10-09T07:58:34;20.10;73.60
11214;DHT22;5664;48.606;13.456;2023-10-09T08:01:11;20.20;74.50
11214;DHT22;5664;48.606;13.456;2023-10-09T08:04:03;20.20;74.80
11214;DHT22;5664;48.606;13.456;2023-10-09T08:06:38;20.30;75.50
11214;DHT22;5664;48.606;13.456;2023-10-09T08:09:06;20.30;76.40
11214;DHT22;5664;48.606;13.456;2023-10-09T08:11:38;20.30;77.50
11214;DHT22;5664;48.606;13.456;2023-10-09T08:14:13;20.30;78.10
11214;DHT22;5664;48.606;13.456;2023-10-09T08:16:57;20.30;78.50
11214;DHT22;5664;48.606;13.456;2023-10-09T08:19:42;20.30;78.50
11214;DHT22;5664;48.606;13.456;2023-10-09T08:22:25;20.30;78.80
11214;DHT22;5664;48.606;13.456;2023-10-09T08:24:50;20.30;78.40
11214;DHT22;5664;48.606;13.456;2023-10-09T08:29:56;20.30;80.60
11214;DHT22;5664;48.606;13.456;2023-10-09T08:32:40;20.30;81.40
11214;DHT22;5664;48.606;13.456;2023-10-09T08:35:08;20.30;81.70
11214;DHT22;5664;48.606;13.456;2023-10-09T08:40:33;20.30;81.30
11214;DHT22;5664;48.606;13.456;2023-10-09T08:43:23;20.30;80.40
11214;DHT22;5664;48.606;13.456;2023-10-09T08:45:54;20.30;80.90
11214;DHT22;5664;48.606;13.456;2023-10-09T08:48:26;19.70;79.10
11214;DHT22;5664;48.606;13.456;2023-10-09T08:50:53;20.20;80.30
11214;DHT22;5664;48.606;13.456;2023-10-09T08:53:25;20.10;79.80
11214;DHT22;5664;48.606;13.456;2023-10-09T08:55:53;20.10;79.70
11214;DHT22;5664;48.606;13.456;2023-10-09T08:58:18;20.10;79.80
11214;DHT22;5664;48.606;13.456;2023-10-09T09:01:02;20.10;79.90
11214;DHT22;5664;48.606;13.456;2023-10-09T09:03:37;20.30;80.10
11214;DHT22;5664;48.606;13.456;2023-10-09T09:06:02;20.10;80.00
11214;DHT22;5664;48.606;13.456;2023-10-09T09:08:29;20.10;80.30
11214;DHT22;5664;48.606;13.456;2023-10-09T09:13:39;20.10;79.50
11214;DHT22;5664;48.606;13.456;2023-10-09T09:16:23;20.10;80.30
11214;DHT22;5664;48.606;13.456;2023-10-09T09:18:56;20.10;79.80
11214;DHT22;5664;48.606;13.456;2023-10-09T09:21:29;20.10;79.30
11214;DHT22;5664;48.606;13.456;2023-10-09T09:23:56;20.10;79.00
11214;DHT22;5664;48.606;13.456;2023-10-09T09:26:35;20.10;79.30
11214;DHT22;5664;48.606;13.456;2023-10-09T09:29:10;20.10;79.00
11214;DHT22;5664;48.606;13.456;2023-10-09T09:31:36;20.30;79.00
11214;DHT22;5664;48.606;13.456;2023-10-09T09:34:05;20.20;79.40
11214;DHT22;5664;48.606;13.456;2023-10-09T09:36:49;20.20;80.10
11214;DHT22;5664;48.606;13.456;2023-10-09T09:39:20;20.30;80.40
11214;DHT22;5664;48.606;13.456;2023-10-09T09:41:53;20.30;80.00
11214;DHT22;5664;48.606;13.456;2023-10-09T09:44:20;20.30;78.80
11214;DHT22;5664;48.606;13.456;2023-10-09T09:46:51;20.30;78.40
11214;DHT22;5664;48.606;13.456;2023-10-09T09:49:19;20.30;78.50
11214;DHT22;5664;48.606;13.456;2023-10-09T09:51:47;20.30;78.70
11214;DHT22;5664;48.606;13.456;2023-10-09T09:54:15;20.40;78.70
11214;DHT22;5664;48.606;13.456;2023-10-09T09:56:44;20.50;78.30
11214;DHT22;5664;48.606;13.456;2023-10-09T09:59:16;20.50;77.90
11214;DHT22;5664;48.606;13.456;2023-10-09T10:01:48;20.50;78.10
11214;DHT22;5664;48.606;13.456;2023-10-09T10:04:22;20.50;78.20
11214;DHT22;5664;48.606;13.456;2023-10-09T10:06:49;20.60;78.30
11214;DHT22;5664;48.606;13.456;2023-10-09T10:09:34;20.60;78.10
11214;DHT22;5664;48.606;13.456;2023-10-09T10:12:09;20.70;78.20
11214;DHT22;5664;48.606;13.456;2023-10-09T10:14:54;20.30;78.30
11214;DHT22;5664;48.606;13.456;2023-10-09T10:17:25;20.60;78.40
11214;DHT22;5664;48.606;13.456;2023-10-09T10:20:00;20.60;79.30
11214;DHT22;5664;48.606;13.456;2023-10-09T10:22:29;20.60;79.50
11214;DHT22;5664;48.606;13.456;2023-10-09T10:24:55;20.50;79.70
11214;DHT22;5664;48.606;13.456;2023-10-09T10:27:25;20.50;79.80
11214;DHT22;5664;48.606;13.456;2023-10-09T10:32:53;20.50;80.20
11214;DHT22;5664;48.606;13.456;2023-10-09T10:35:19;20.40;80.50
11214;DHT22;5664;48.606;13.456;2023-10-09T10:38:00;20.40;80.80
11214;DHT22;5664;48.606;13.456;2023-10-09T10:40:37;20.40;80.60
11214;DHT22;5664;48.606;13.456;2023-10-09T10:43:23;20.40;80.80
11214;DHT22;5664;48.606;13.456;2023-10-09T10:46:06;20.40;80.80
11214;DHT22;5664;48.606;13.456;2023-10-09T10:48:41;20.40;80.90
11214;DHT22;5664;48.606;13.456;2023-10-09T10:51:12;20.40;80.80
11214;DHT22;5664;48.606;13.456;2023-10-09T10:53:50;20.40;80.90
11214;DHT22;5664;48.606;13.456;2023-10-09T10:56:18;20.40;81.10
11214;DHT22;5664;48.606;13.456;2023-10-09T10:58:54;20.40;81.40
11214;DHT22;5664;48.606;13.456;2023-10-09T11:01:40;20.40;81.50
11214;DHT22;5664;48.606;13.456;2023-10-09T11:04:25;20.40;81.70
11214;DHT22;5664;48.606;13.456;2023-10-09T11:06:53;20.40;82.20
11214;DHT22;5664;48.606;13.456;2023-10-09T11:09:25;20.40;82.10
11214;DHT22;5664;48.606;13.456;2023-10-09T11:12:04;20.40;82.30
11214;DHT22;5664;48.606;13.456;2023-10-09T11:14:47;20.40;82.30
11214;DHT22;5664;48.606;13.456;2023-10-09T11:17:37;20.40;83.40
11214;DHT22;5664;48.606;13.456;2023-10-09T11:20:04;20.40;82.90
11214;DHT22;5664;48.606;13.456;2023-10-09T11:22:50;20.30;83.20
11214;DHT22;5664;48.606;13.456;2023-10-09T11:25:36;20.40;83.00
11214;DHT22;5664;48.606;13.456;2023-10-09T11:28:03;20.40;83.40
11214;DHT22;5664;48.606;13.456;2023-10-09T11:30:41;20.50;83.20
11214;DHT22;5664;48.606;13.456;2023-10-09T11:33:11;20.50;83.00
11214;DHT22;5664;48.606;13.456;2023-10-09T11:35:40;20.50;82.60
11214;DHT22;5664;48.606;13.456;2023-10-09T11:38:08;20.60;82.50
11214;DHT22;5664;48.606;13.456;2023-10-09T11:40:46;20.60;82.00
11214;DHT22;5664;48.606;13.456;2023-10-09T11:43:18;20.60;81.30
11214;DHT22;5664;48.606;13.456;2023-10-09T11:45:51;20.50;80.60
11214;DHT22;5664;48.606;13.456;2023-10-09T11:48:20;20.50;81.40
11214;DHT22;5664;48.606;13.456;2023-10-09T11:50:52;20.50;80.60
11214;DHT22;5664;48.606;13.456;2023-10-09T11:53:39;20.50;80.70
11214;DHT22;5664;48.606;13.456;2023-10-09T11:56:08;20.50;81.50
11214;DHT22;5664;48.606;13.456;2023-10-09T11:58:38;20.40;82.20
11214;DHT22;5664;48.606;13.456;2023-10-09T12:01:12;20.40;82.70
11214;DHT22;5664;48.606;13.456;2023-10-09T12:03:46;20.40;83.10
11214;DHT22;5664;48.606;13.456;2023-10-09T12:06:19;20.40;84.00
11214;DHT22;5664;48.606;13.456;2023-10-09T12:08:47;20.50;84.70
11214;DHT22;5664;48.606;13.456;2023-10-09T12:11:13;20.40;85.10
11214;DHT22;5664;48.606;13.456;2023-10-09T12:13:40;20.40;85.40
11214;DHT22;5664;48.606;13.456;2023-10-09T12:16:08;20.40;85.30
11214;DHT22;5664;48.606;13.456;2023-10-09T12:18:36;20.40;85.50
11214;DHT22;5664;48.606;13.456;2023-10-09T12:21:04;20.40;85.40
11214;DHT22;5664;48.606;13.456;2023-10-09T12:23:30;20.40;85.50
11214;DHT22;5664;48.606;13.456;2023-10-09T12:26:04;20.30;85.50
11214;DHT22;5664;48.606;13.456;2023-10-09T12:28:30;20.30;85.90
11214;DHT22;5664;48.606;13.456;2023-10-09T12:30:58;20.30;86.00
11214;DHT22;5664;48.606;13.456;2023-10-09T12:33:27;20.30;86.30
11214;DHT22;5664;48.606;13.456;2023-10-09T12:35:56;20.30;86.40
11214;DHT22;5664;48.606;13.456;2023-10-09T12:38:28;20.30;86.70
11214;DHT22;5664;48.606;13.456;2023-10-09T12:41:01;20.30;86.10
11214;DHT22;5664;48.606;13.456;2023-10-09T12:43:33;20.30;86.60
11214;DHT22;5664;48.606;13.456;2023-10-09T12:46:06;20.30;86.20
11214;DHT22;5664;48.606;13.456;2023-10-09T12:48:33;20.30;85.70
11214;DHT22;5664;48.606;13.456;2023-10-09T12:50:58;20.30;86.10
11214;DHT22;5664;48.606;13.456;2023-10-09T12:53:31;20.30;86.60
11214;DHT22;5664;48.606;13.456;2023-10-09T12:55:58;20.30;86.10
11214;DHT22;5664;48.606;13.456;2023-10-09T12:58:23;20.30;86.60
11214;DHT22;5664;48.606;13.456;2023-10-09T13:00:52;20.30;86.30
11214;DHT22;5664;48.606;13.456;2023-10-09T13:03:17;20.50;85.80
11214;DHT22;5664;48.606;13.456;2023-10-09T13:05:47;20.30;85.80
11214;DHT22;5664;48.606;13.456;2023-10-09T13:08:23;20.30;85.90
11214;DHT22;5664;48.606;13.456;2023-10-09T13:10:52;20.30;86.10
11214;DHT22;5664;48.606;13.456;2023-10-09T13:13:26;20.30;86.70
11214;DHT22;5664;48.606;13.456;2023-10-09T13:16:01;20.10;86.00
11214;DHT22;5664;48.606;13.456;2023-10-09T13:18:31;20.30;87.70
11214;DHT22;5664;48.606;13.456;2023-10-09T13:20:57;20.30;87.70
11214;DHT22;5664;48.606;13.456;2023-10-09T13:23:22;20.30;87.70
11214;DHT22;5664;48.606;13.456;2023-10-09T13:25:59;20.20;87.50
11214;DHT22;5664;48.606;13.456;2023-10-09T13:28:31;20.20;87.40
11214;DHT22;5664;48.606;13.456;2023-10-09T13:30:57;20.20;87.60
11214;DHT22;5664;48.606;13.456;2023-10-09T13:33:22;20.20;87.70
11214;DHT22;5664;48.606;13.456;2023-10-09T13:35:48;20.20;87.60
11214;DHT22;5664;48.606;13.456;2023-10-09T13:38:16;20.20;87.80
11214;DHT22;5664;48.606;13.456;2023-10-09T13:40:42;20.20;88.10
11214;DHT22;5664;48.606;13.456;2023-10-09T13:43:07;20.20;88.30
11214;DHT22;5664;48.606;13.456;2023-10-09T13:45:40;20.20;88.70
11214;DHT22;5664;48.606;13.456;2023-10-09T13:48:05;20.20;89.20
11214;DHT22;5664;48.606;13.456;2023-10-09T13:50:36;20.20;89.80
11214;DHT22;5664;48.606;13.456;2023-10-09T13:53:08;20.20;90.10
11214;DHT22;5664;48.606;13.456;2023-10-09T13:55:38;20.20;90.30
11214;DHT22;5664;48.606;13.456;2023-10-09T13:58:09;20.20;90.40
11214;DHT22;5664;48.606;13.456;2023-10-09T14:00:39;20.20;90.50
11214;DHT22;5664;48.606;13.456;2023-10-09T14:03:07;20.10;90.40
11214;DHT22;5664;48.606;13.456;2023-10-09T14:05:39;20.20;90.40
11214;DHT22;5664;48.606;13.456;2023-10-09T14:08:18;20.10;90.50
11214;DHT22;5664;48.606;13.456;2023-10-09T14:10:44;20.10;90.50
11214;DHT22;5664;48.606;13.456;2023-10-09T14:13:14;20.10;90.50
11214;DHT22;5664;48.606;13.456;2023-10-09T14:15:39;20.10;90.60
11214;DHT22;5664;48.606;13.456;2023-10-09T14:18:06;20.10;90.60
11214;DHT22;5664;48.606;13.456;2023-10-09T14:20:34;20.10;90.60
11214;DHT22;5664;48.606;13.456;2023-10-09T14:23:00;20.10;90.60
11214;DHT22;5664;48.606;13.456;2023-10-09T14:25:35;20.10;90.60
11214;DHT22;5664;48.606;13.456;2023-10-09T14:28:05;20.10;90.70
11214;DHT22;5664;48.606;13.456;2023-10-09T14:30:36;20.00;90.80
11214;DHT22;5664;48.606;13.456;2023-10-09T14:33:08;20.00;90.60
11214;DHT22;5664;48.606;13.456;2023-10-09T14:35:40;20.10;91.20
11214;DHT22;5664;48.606;13.456;2023-10-09T14:38:07;20.10;91.30
11214;DHT22;5664;48.606;13.456;2023-10-09T14:40:40;20.00;91.30
11214;DHT22;5664;48.606;13.456;2023-10-09T14:43:07;20.00;91.20
11214;DHT22;5664;48.606;13.456;2023-10-09T14:45:36;20.00;91.40
11214;DHT22;5664;48.606;13.456;2023-10-09T14:48:02;20.00;91.60
11214;DHT22;5664;48.606;13.456;2023-10-09T14:50:27;20.00;91.70
11214;DHT22;5664;48.606;13.456;2023-10-09T14:52:53;20.00;91.80
11214;DHT22;5664;48.606;13.456;2023-10-09T14:55:18;20.00;92.00
11214;DHT22;5664;48.606;13.456;2023-10-09T14:57:47;20.00;92.30
11214;DHT22;5664;48.606;13.456;2023-10-09T15:00:14;19.80;92.50
11214;DHT22;5664;48.606;13.456;2023-10-09T15:02:40;20.00;92.60
11214;DHT22;5664;48.606;13.456;2023-10-09T15:05:05;20.00;92.60
11214;DHT22;5664;48.606;13.456;2023-10-09T15:07:35;20.00;92.60
11214;DHT22;5664;48.606;13.456;2023-10-09T15:10:06;20.00;92.60
11214;DHT22;5664;48.606;13.456;2023-10-09T15:12:34;20.00;92.80
11214;DHT22;5664;48.606;13.456;2023-10-09T15:15:05;20.00;92.70
11214;DHT22;5664;48.606;13.456;2023-10-09T15:17:39;20.00;92.70
11214;DHT22;5664;48.606;13.456;2023-10-09T15:20:09;19.90;92.90
11214;DHT22;5664;48.606;13.456;2023-10-09T15:22:39;19.90;93.00
11214;DHT22;5664;48.606;13.456;2023-10-09T15:25:05;19.90;93.00
11214;DHT22;5664;48.606;13.456;2023-10-09T15:27:31;19.90;93.40
11214;DHT22;5664;48.606;13.456;2023-10-09T15:29:57;19.90;93.20
11214;DHT22;5664;48.606;13.456;2023-10-09T15:32:22;19.90;93.30
11214;DHT22;5664;48.606;13.456;2023-10-09T15:34:54;19.90;93.40
11214;DHT22;5664;48.606;13.456;2023-10-09T15:37:20;19.80;93.60
11214;DHT22;5664;48.606;13.456;2023-10-09T15:39:46;19.90;93.40
11214;DHT22;5664;48.606;13.456;2023-10-09T15:42:12;20.40;94.00
11214;DHT22;5664;48.606;13.456;2023-10-09T15:44:38;19.80;93.70
11214;DHT22;5664;48.606;13.456;2023-10-09T15:47:04;19.80;93.70
11214;DHT22;5664;48.606;13.456;2023-10-09T15:49:33;19.80;93.70
11214;DHT22;5664;48.606;13.456;2023-10-09T15:51:59;19.80;93.90
11214;DHT22;5664;48.606;13.456;2023-10-09T15:54:26;19.80;93.90
11214;DHT22;5664;48.606;13.456;2023-10-09T15:56:52;19.80;93.80
11214;DHT22;5664;48.606;13.456;2023-10-09T15:59:20;19.80;93.80
11214;DHT22;5664;48.606;13.456;2023-10-09T16:01:45;19.80;93.80
11214;DHT22;5664;48.606;13.456;2023-10-09T16:04:11;19.70;94.50
11214;DHT22;5664;48.606;13.456;2023-10-09T16:06:37;19.70;93.80
11214;DHT22;5664;48.606;13.456;2023-10-09T16:09:05;19.70;94.20
11214;DHT22;5664;48.606;13.456;2023-10-09T16:11:31;19.70;93.90
11214;DHT22;5664;48.606;13.456;2023-10-09T16:13:59;19.70;93.60
11214;DHT22;5664;48.606;13.456;2023-10-09T16:16:25;19.70;93.50
11214;DHT22;5664;48.606;13.456;2023-10-09T16:18:51;19.70;93.90
11214;DHT22;5664;48.606;13.456;2023-10-09T16:21:17;19.70;93.90